Time;durP1;ratioP1;P1;durP2;ratioP2;P2;SDS_P1;SDS_P2;PMS_P1;PMS_P2;Temp;Humidity;BMP_temperature;BMP_pressure;BME280_temperature;BME280_humidity;BME280_pressure;Samples;Min_cycle;Max_cycle;Signal;HPM_P1;HPM_P2
2023/05/09 06:32:57;;;;;;;21.48;16.40;;;16.00;99.90;;;;;;6295149;23;20048;-76
2023/05/09 06:35:59;;;;;;;21.65;15.40;;;16.10;99.90;;;;;;6103490;29;20067;-76
2023/05/09 06:39:02;;;;;;;21.25;16.50;;;16.00;99.90;;;;;;6104002;29;20048;-76
2023/05/09 06:42:04;;;;;;;23.23;17.77;;;16.00;99.90;;;;;;6103845;29;20378;-77
2023/05/09 06:45:07;;;;;;;25.23;18.40;;;16.00;99.90;;;;;;6081692;29;20048;-76
2023/05/09 06:48:11;;;;;;;25.88;18.67;;;16.00;99.90;;;;;;6097052;29;20482;-76
2023/05/09 06:51:13;;;;;;;23.58;17.95;;;16.10;99.90;;;;;;6104190;29;20055;-76
2023/05/09 06:54:16;;;;;;;26.52;18.92;;;15.90;99.90;;;;;;6103625;29;20414;-74
2023/05/09 06:57:17;;;;;;;27.17;19.75;;;16.10;99.90;;;;;;6103787;29;20060;-76
2023/05/09 07:00:20;;;;;;;26.73;19.15;;;16.30;99.90;;;;;;6103550;29;20048;-77
2023/05/09 07:03:24;;;;;;;25.52;19.15;;;16.30;99.90;;;;;;6103683;29;20063;-78
2023/05/09 07:06:26;;;;;;;26.25;19.52;;;16.30;99.90;;;;;;6103701;29;20482;-76
2023/05/09 07:09:28;;;;;;;28.20;20.42;;;16.30;99.90;;;;;;6103527;29;20048;-76
2023/05/09 07:12:31;;;;;;;31.50;20.05;;;16.30;99.90;;;;;;6103771;29;20048;-77
2023/05/09 07:15:33;;;;;;;29.48;21.08;;;16.40;99.90;;;;;;6106356;29;20056;-77
2023/05/09 07:18:36;;;;;;;28.05;20.33;;;16.40;99.90;;;;;;6108278;29;20051;-79
2023/05/09 07:21:38;;;;;;;28.45;20.13;;;16.40;99.90;;;;;;6108179;29;20482;-80
2023/05/09 07:24:40;;;;;;;27.70;19.63;;;16.40;99.90;;;;;;6108052;29;20055;-78
2023/05/09 07:27:41;;;;;;;27.45;18.98;;;16.50;99.90;;;;;;6109986;29;20048;-77
2023/05/09 07:30:43;;;;;;;25.50;18.48;;;16.60;99.90;;;;;;6112157;29;20062;-77
2023/05/09 07:33:46;;;;;;;25.38;18.75;;;16.70;99.90;;;;;;6115766;29;20055;-77
2023/05/09 07:36:48;;;;;;;27.20;18.77;;;16.50;99.90;;;;;;6110917;29;20052;-77
2023/05/09 07:39:50;;;;;;;25.85;19.27;;;16.60;99.90;;;;;;6108289;29;20505;-78
2023/05/09 07:42:53;;;;;;;24.23;17.77;;;16.70;99.90;;;;;;6082276;29;20063;-79
2023/05/09 07:45:55;;;;;;;24.85;18.75;;;16.80;99.90;;;;;;6081685;29;20060;-76
2023/05/09 07:48:58;;;;;;;24.60;17.83;;;16.90;99.90;;;;;;6105691;29;20052;-76
2023/05/09 07:52:01;;;;;;;25.38;18.13;;;17.00;99.90;;;;;;6105708;29;20406;-79
2023/05/09 07:55:03;;;;;;;23.42;17.02;;;17.20;99.90;;;;;;6102982;29;20048;-75
2023/05/09 07:58:05;;;;;;;22.40;16.80;;;17.40;99.90;;;;;;6104331;29;20052;-77
2023/05/09 08:01:07;;;;;;;24.42;16.73;;;17.50;99.90;;;;;;6101617;29;20044;-78
2023/05/09 08:04:10;;;;;;;21.30;15.75;;;17.60;99.90;;;;;;6103537;29;20056;-79
2023/05/09 08:07:12;;;;;;;24.42;16.90;;;17.70;99.90;;;;;;6104489;29;20044;-80
2023/05/09 08:10:13;;;;;;;23.10;16.40;;;17.80;99.90;;;;;;6104137;29;20060;-80
2023/05/09 08:13:15;;;;;;;24.00;18.08;;;17.80;99.90;;;;;;6104543;29;20470;-77
2023/05/09 08:16:17;;;;;;;25.02;17.92;;;17.70;99.90;;;;;;6103261;29;20179;-79
2023/05/09 08:19:22;;;;;;;27.50;16.33;;;17.80;99.90;;;;;;6103871;29;20059;-78
2023/05/09 08:22:24;;;;;;;21.83;16.48;;;17.80;99.90;;;;;;6103361;29;20486;-79
2023/05/09 08:25:26;;;;;;;21.42;15.75;;;17.90;99.90;;;;;;6103202;29;20048;-80
2023/05/09 08:28:28;;;;;;;20.05;15.05;;;18.20;99.90;;;;;;6102673;29;20052;-79
2023/05/09 08:31:30;;;;;;;19.17;15.13;;;18.20;99.90;;;;;;6103200;29;20496;-78
2023/05/09 08:34:34;;;;;;;21.70;15.32;;;18.30;99.90;;;;;;6103120;29;20052;-80
2023/05/09 08:37:36;;;;;;;20.98;15.77;;;18.40;99.90;;;;;;6103004;29;20549;-78
2023/05/09 08:40:38;;;;;;;20.65;15.63;;;18.50;99.90;;;;;;6103506;29;20052;-78
2023/05/09 08:43:40;;;;;;;19.40;14.30;;;18.60;99.90;;;;;;6106617;29;20052;-80
2023/05/09 08:46:44;;;;;;;20.80;13.60;;;18.70;99.90;;;;;;6106290;29;20060;-80
2023/05/09 08:49:48;;;;;;;;;;;18.80;99.90;;;;;;6103372;29;20312;-79
2023/05/09 08:52:51;;;;;;;19.08;14.10;;;18.90;99.90;;;;;;6102444;29;19923;-80
2023/05/09 08:55:53;;;;;;;17.38;13.20;;;19.00;99.90;;;;;;6100745;29;20494;-79
2023/05/09 08:58:56;;;;;;;19.50;14.18;;;19.20;99.90;;;;;;6102537;29;20044;-79
2023/05/09 09:01:58;;;;;;;18.43;14.33;;;19.30;99.90;;;;;;6102467;29;20048;-80
2023/05/09 09:05:03;;;;;;;17.15;13.48;;;19.40;99.90;;;;;;6102391;29;20048;-78
2023/05/09 09:08:07;;;;;;;21.13;14.60;;;19.40;99.90;;;;;;6102816;29;20544;-78
2023/05/09 09:11:12;;;;;;;17.20;13.00;;;19.40;99.90;;;;;;6102139;29;20052;-80
2023/05/09 09:14:20;;;;;;;18.95;13.50;;;19.40;99.90;;;;;;6102492;29;20056;-80
2023/05/09 09:17:27;;;;;;;19.50;13.27;;;19.40;99.90;;;;;;6078616;29;20392;-80
2023/05/09 09:20:33;;;;;;;19.05;12.95;;;19.40;99.90;;;;;;6082432;29;20052;-80
2023/05/09 09:23:39;;;;;;;18.80;13.75;;;19.50;99.90;;;;;;6101974;29;20056;-81
2023/05/09 09:26:47;;;;;;;21.83;13.77;;;19.60;99.90;;;;;;6101879;29;20382;-78
2023/05/09 09:29:49;;;;;;;20.95;13.65;;;19.70;99.90;;;;;;6101745;29;20052;-79
2023/05/09 09:32:51;;;;;;;20.88;14.70;;;19.70;99.90;;;;;;6099778;29;20417;-79
2023/05/09 09:35:56;;;;;;;21.10;14.23;;;19.70;99.90;;;;;;6101585;29;20059;-78
2023/05/09 09:39:00;;;;;;;18.33;12.40;;;19.50;99.90;;;;;;6099817;29;20060;-77
2023/05/09 09:42:11;;;;;;;16.70;10.70;;;19.70;99.90;;;;;;6078178;29;20060;-80
2023/05/09 09:45:16;;;;;;;13.68;10.02;;;19.70;99.90;;;;;;6095355;29;20071;-79
2023/05/09 09:48:18;;;;;;;14.13;10.38;;;19.80;99.90;;;;;;6100724;29;20071;-78
2023/05/09 09:51:21;;;;;;;14.20;10.20;;;20.00;99.90;;;;;;6100784;29;20120;-79
2023/05/09 09:54:26;;;;;;;;;;;19.80;99.90;;;;;;6100415;29;20526;-78
2023/05/09 09:57:34;;;;;;;12.85;9.38;;;20.10;99.90;;;;;;6101625;29;19934;-78
2023/05/09 10:00:36;;;;;;;14.05;9.57;;;20.20;99.30;;;;;;6098175;29;20044;-77
2023/05/09 10:03:40;;;;;;;10.32;8.05;;;20.10;99.30;;;;;;6101326;29;20737;-77
2023/05/09 10:06:52;;;;;;;11.80;7.53;;;20.20;99.70;;;;;;6099441;29;20424;-79
2023/05/09 10:09:54;;;;;;;11.05;7.50;;;20.30;99.60;;;;;;6101401;29;20060;-77
2023/05/09 10:13:00;;;;;;;10.00;7.57;;;20.20;99.20;;;;;;6100508;29;20118;-76
2023/05/09 10:16:03;;;;;;;8.75;6.57;;;20.10;98.20;;;;;;6102338;29;20576;-77
2023/05/09 10:19:06;;;;;;;8.10;6.30;;;20.20;98.90;;;;;;6100427;29;20056;-78
2023/05/09 10:22:12;;;;;;;8.35;6.20;;;20.30;98.20;;;;;;6101032;29;20048;-79
2023/05/09 10:25:21;;;;;;;9.48;5.60;;;20.50;98.00;;;;;;6098393;29;20044;-79
2023/05/09 10:28:28;;;;;;;8.23;5.75;;;20.60;98.30;;;;;;6100572;29;20055;-78
2023/05/09 10:31:32;;;;;;;9.52;4.78;;;20.70;97.40;;;;;;6101875;29;20056;-78
2023/05/09 10:34:38;;;;;;;8.75;5.43;;;20.80;96.80;;;;;;6103173;29;20052;-79
2023/05/09 10:37:41;;;;;;;7.05;4.20;;;21.00;96.10;;;;;;6103350;29;20048;-78
2023/05/09 10:40:46;;;;;;;10.40;4.38;;;20.80;96.30;;;;;;6091010;29;20048;-76
2023/05/09 10:43:48;;;;;;;7.78;4.32;;;20.90;96.10;;;;;;6079723;29;20402;-78
2023/05/09 10:46:51;;;;;;;6.75;3.97;;;21.10;95.50;;;;;;6080093;29;20487;-79
2023/05/09 10:49:53;;;;;;;8.60;5.15;;;21.20;95.20;;;;;;6079583;29;20056;-78
2023/05/09 10:53:15;;;;;;;6.40;3.93;;;21.30;94.70;;;;;;6080172;29;20499;-78
2023/05/09 10:56:26;;;;;;;6.88;4.13;;;21.00;95.20;;;;;;6100432;29;20324;-77
2023/05/09 10:59:40;;;;;;;6.50;4.57;;;21.20;95.70;;;;;;6103206;29;20176;-78
2023/05/09 11:02:41;;;;;;;8.48;4.40;;;21.00;94.90;;;;;;6102910;29;20044;-77
2023/05/09 11:05:43;;;;;;;6.20;3.70;;;21.20;95.70;;;;;;6103338;29;20048;-78
2023/05/09 11:08:48;;;;;;;7.13;4.95;;;21.30;95.30;;;;;;6103005;29;20048;-75
2023/05/09 11:11:52;;;;;;;7.47;4.50;;;21.50;95.30;;;;;;6103259;29;20051;-76
2023/05/09 11:15:06;;;;;;;5.15;3.60;;;21.50;94.70;;;;;;6102995;29;20070;-77
2023/05/09 11:18:10;;;;;;;5.38;3.35;;;21.50;95.60;;;;;;6103104;29;20410;-77
2023/05/09 11:21:12;;;;;;;5.13;3.20;;;21.50;95.40;;;;;;6102908;29;20139;-76
2023/05/09 11:24:19;;;;;;;5.63;2.20;;;21.60;95.00;;;;;;6102335;29;20044;-77
2023/05/09 11:27:23;;;;;;;3.85;2.13;;;21.40;94.30;;;;;;6079506;29;20049;-78
2023/05/09 11:30:36;;;;;;;3.28;1.95;;;21.60;95.10;;;;;;6101007;29;20052;-78
2023/05/09 11:33:40;;;;;;;3.35;1.90;;;21.80;93.30;;;;;;6102798;29;20048;-75
2023/05/09 11:36:42;;;;;;;;;;;22.00;92.80;;;;;;6103252;29;20388;-77
2023/05/09 11:39:59;;;;;;;;;;;22.10;93.40;;;;;;6102544;29;20110;-79
2023/05/09 11:43:02;;;;;;;3.63;1.95;;;21.90;92.90;;;;;;6103064;29;19923;-76
2023/05/09 11:46:04;;;;;;;5.22;2.20;;;22.10;93.30;;;;;;6102809;29;20048;-79
2023/05/09 11:49:06;;;;;;;3.97;1.90;;;22.10;92.60;;;;;;6102763;29;20063;-76
2023/05/09 11:52:08;;;;;;;4.50;2.00;;;22.10;92.70;;;;;;6102308;29;20048;-78
2023/05/09 11:55:14;;;;;;;4.20;1.92;;;22.30;92.20;;;;;;6102633;29;20056;-77
2023/05/09 11:58:17;;;;;;;2.97;1.80;;;22.40;92.20;;;;;;6102442;29;20437;-77
2023/05/09 12:01:19;;;;;;;3.60;2.03;;;22.50;91.90;;;;;;6103091;29;20048;-77
2023/05/09 12:04:21;;;;;;;3.60;2.10;;;22.70;92.60;;;;;;6106529;29;20506;-77
2023/05/09 12:07:23;;;;;;;4.40;2.00;;;22.70;91.30;;;;;;6106661;29;20052;-76
2023/05/09 12:10:26;;;;;;;4.20;2.03;;;22.70;90.80;;;;;;6106717;29;20413;-77
2023/05/09 12:13:28;;;;;;;3.53;1.95;;;22.80;90.40;;;;;;6106652;29;20048;-77
2023/05/09 12:16:30;;;;;;;3.42;2.20;;;22.90;89.30;;;;;;6106861;29;20048;-78
2023/05/09 12:19:32;;;;;;;3.65;2.22;;;22.70;90.00;;;;;;6106243;29;20063;-78
2023/05/09 12:22:36;;;;;;;3.83;2.40;;;22.70;90.20;;;;;;6106422;29;20410;-77
2023/05/09 12:25:39;;;;;;;4.10;2.40;;;22.70;89.20;;;;;;6106290;29;20531;-75
2023/05/09 12:28:41;;;;;;;;;;;22.70;90.20;;;;;;6106886;29;20091;-77
2023/05/09 12:31:43;;;;;;;3.42;2.22;;;22.80;89.60;;;;;;6106085;29;20361;-78
2023/05/09 12:34:47;;;;;;;3.78;2.10;;;23.10;88.40;;;;;;6105893;29;20052;-78
2023/05/09 12:37:56;;;;;;;3.70;2.33;;;23.10;88.10;;;;;;6106068;29;20056;-77
2023/05/09 12:41:04;;;;;;;4.80;2.40;;;23.30;89.50;;;;;;6105947;29;20052;-78
2023/05/09 12:44:06;;;;;;;3.85;2.20;;;23.20;86.80;;;;;;6106173;29;20048;-78
2023/05/09 12:47:12;;;;;;;5.20;2.30;;;23.30;87.50;;;;;;6105614;29;20139;-77
2023/05/09 12:50:14;;;;;;;3.60;2.17;;;23.40;88.40;;;;;;6105793;29;20402;-76
2023/05/09 12:53:24;;;;;;;3.10;1.83;;;23.30;86.30;;;;;;6105863;29;20054;-78
2023/05/09 12:56:27;;;;;;;4.88;2.10;;;23.10;84.60;;;;;;6105939;29;20048;-78
2023/05/09 12:59:29;;;;;;;;;;;23.10;83.70;;;;;;6106106;29;20064;-78
2023/05/09 13:02:35;;;;;;;4.07;1.60;;;23.30;87.50;;;;;;6105397;29;19930;-78
2023/05/09 13:05:37;;;;;;;5.22;2.20;;;23.30;87.50;;;;;;6105388;29;20413;-76
2023/05/09 13:08:39;;;;;;;3.92;2.00;;;23.40;87.30;;;;;;6105578;29;20510;-76
2023/05/09 13:11:42;;;;;;;5.53;2.05;;;23.60;85.60;;;;;;6105528;29;20052;-77
2023/05/09 13:14:44;;;;;;;3.80;2.10;;;23.70;87.20;;;;;;6105517;29;20051;-78
2023/05/09 13:17:47;;;;;;;4.38;1.95;;;23.90;87.30;;;;;;6105167;29;20048;-77
2023/05/09 13:20:49;;;;;;;3.28;1.65;;;23.90;83.30;;;;;;6105174;29;20071;-75
2023/05/09 13:23:51;;;;;;;3.63;2.00;;;23.80;83.40;;;;;;6105553;29;20048;-77
2023/05/09 13:26:54;;;;;;;3.65;2.25;;;23.80;84.70;;;;;;6105308;29;20059;-76
2023/05/09 13:29:56;;;;;;;4.10;2.20;;;24.00;84.20;;;;;;6104644;29;20078;-76
2023/05/09 13:32:58;;;;;;;4.68;2.50;;;24.00;84.40;;;;;;6104712;29;20079;-77
2023/05/09 13:36:00;;;;;;;4.78;2.55;;;23.80;84.20;;;;;;6105089;29;20055;-76
2023/05/09 13:39:02;;;;;;;10.13;2.60;;;23.90;85.50;;;;;;6104582;29;20056;-77
2023/05/09 13:42:05;;;;;;;6.03;2.37;;;23.80;85.20;;;;;;6105903;29;20494;-76
2023/05/09 13:45:08;;;;;;;;;;;23.50;84.50;;;;;;6107202;29;20056;-77
2023/05/09 13:48:10;;;;;;;3.88;2.03;;;23.60;86.20;;;;;;6108119;29;20285;-79
2023/05/09 13:51:12;;;;;;;4.80;2.33;;;23.30;84.80;;;;;;6108063;29;20052;-75
2023/05/09 13:54:17;;;;;;;3.43;1.90;;;23.00;84.60;;;;;;6104604;29;20406;-78
2023/05/09 13:57:20;;;;;;;4.68;1.77;;;23.00;85.80;;;;;;6105927;29;20072;-77
2023/05/09 14:00:23;;;;;;;;;;;22.80;84.60;;;;;;6108608;29;20048;-77
2023/05/09 14:03:25;;;;;;;3.78;1.75;;;22.70;84.60;;;;;;6107706;29;20066;-77
2023/05/09 14:06:27;;;;;;;4.40;1.98;;;22.70;84.70;;;;;;6107022;29;20071;-77
2023/05/09 14:09:29;;;;;;;4.83;2.23;;;22.70;88.40;;;;;;6108166;29;20079;-77
2023/05/09 14:12:33;;;;;;;4.05;2.30;;;22.50;90.20;;;;;;6105698;29;20055;-76
2023/05/09 14:15:35;;;;;;;4.45;2.10;;;22.60;89.90;;;;;;6106533;29;20048;-76
2023/05/09 14:18:37;;;;;;;6.28;2.50;;;22.60;90.40;;;;;;6104672;29;20063;-78
2023/05/09 14:21:39;;;;;;;3.90;2.20;;;22.40;91.20;;;;;;6104243;29;20055;-78
2023/05/09 14:24:41;;;;;;;4.50;2.20;;;22.30;91.10;;;;;;6103668;29;20055;-78
2023/05/09 14:27:44;;;;;;;4.22;2.40;;;22.20;91.60;;;;;;6103920;29;20508;-79
2023/05/09 14:30:46;;;;;;;4.60;2.17;;;22.30;91.70;;;;;;6103711;29;20052;-75
2023/05/09 14:33:48;;;;;;;3.90;2.30;;;22.50;92.00;;;;;;6103861;29;20089;-76
2023/05/09 14:36:50;;;;;;;4.18;2.10;;;22.60;91.90;;;;;;6103739;29;20410;-77
2023/05/09 14:39:51;;;;;;;3.92;2.13;;;22.80;91.80;;;;;;6104025;29;20056;-78
2023/05/09 14:42:54;;;;;;;3.78;1.90;;;23.00;92.00;;;;;;6104075;29;20048;-77
2023/05/09 14:45:57;;;;;;;;;;;23.20;91.40;;;;;;6094907;29;20059;-78
2023/05/09 14:49:02;;;;;;;5.20;2.00;;;23.20;90.70;;;;;;6100965;29;19923;-76
2023/05/09 14:52:05;;;;;;;4.65;1.88;;;23.40;91.30;;;;;;6101220;29;20083;-77
2023/05/09 14:55:07;;;;;;;5.07;1.90;;;23.10;90.80;;;;;;6099501;29;20508;-77
2023/05/09 14:58:12;;;;;;;5.90;2.20;;;23.00;91.30;;;;;;6096868;29;20048;-77
2023/05/09 15:01:14;;;;;;;4.50;2.00;;;23.00;91.10;;;;;;6099584;29;20383;-78
2023/05/09 15:04:16;;;;;;;4.55;1.60;;;23.00;91.30;;;;;;6100825;29;20056;-78
2023/05/09 15:07:18;;;;;;;4.80;1.85;;;23.00;91.60;;;;;;6101012;29;20048;-77
2023/05/09 15:10:20;;;;;;;3.83;1.77;;;22.90;91.50;;;;;;6098619;29;20052;-77
2023/05/09 15:13:23;;;;;;;3.40;1.80;;;23.00;91.90;;;;;;6099539;29;20059;-76
2023/05/09 15:16:25;;;;;;;3.08;1.52;;;23.00;91.20;;;;;;6100177;29;20059;-76
2023/05/09 15:19:30;;;;;;;3.83;1.60;;;23.00;91.80;;;;;;6100130;29;20060;-77
2023/05/09 15:22:32;;;;;;;2.85;1.60;;;22.80;92.40;;;;;;6099538;29;20099;-78
2023/05/09 15:25:34;;;;;;;4.30;1.80;;;23.00;92.50;;;;;;6096416;29;20048;-77
2023/05/09 15:28:37;;;;;;;3.28;1.73;;;22.90;91.20;;;;;;6097960;29;20058;-77
2023/05/09 15:31:39;;;;;;;;;;;22.90;91.30;;;;;;6100192;29;20063;-79
2023/05/09 15:34:41;;;;;;;4.20;1.80;;;22.80;91.00;;;;;;6100474;29;19930;-80
2023/05/09 15:37:43;;;;;;;2.63;1.40;;;22.70;91.20;;;;;;6103069;29;20135;-79
2023/05/09 15:40:45;;;;;;;3.65;1.33;;;22.70;91.90;;;;;;6105064;29;20055;-77
2023/05/09 15:43:48;;;;;;;3.75;1.67;;;22.50;91.70;;;;;;6104346;29;20059;-76
2023/05/09 15:46:50;;;;;;;3.58;1.52;;;22.40;91.00;;;;;;6101176;29;20049;-77
2023/05/09 15:49:52;;;;;;;4.15;1.55;;;22.20;91.30;;;;;;6081301;29;20498;-79
2023/05/09 15:52:54;;;;;;;3.15;1.50;;;22.10;91.70;;;;;;6095325;29;20477;-78
2023/05/09 15:55:55;;;;;;;3.92;1.70;;;22.10;92.00;;;;;;6104323;29;20048;-78
2023/05/09 15:58:59;;;;;;;4.22;1.27;;;22.00;92.00;;;;;;6104798;29;20059;-79
2023/05/09 16:02:00;;;;;;;5.43;1.50;;;21.80;92.30;;;;;;6103364;29;20056;-78
2023/05/09 16:05:03;;;;;;;4.55;1.48;;;21.80;92.90;;;;;;6103111;29;20059;-78
2023/05/09 16:08:05;;;;;;;3.10;1.45;;;21.70;93.40;;;;;;6103248;29;20465;-79
2023/05/09 16:11:07;;;;;;;2.85;1.30;;;21.60;93.20;;;;;;6101380;29;20501;-79
2023/05/09 16:14:11;;;;;;;3.00;1.48;;;21.60;93.70;;;;;;6104244;29;20137;-76
2023/05/09 16:17:13;;;;;;;3.95;1.60;;;21.60;94.30;;;;;;6104096;29;20071;-77
2023/05/09 16:20:15;;;;;;;3.83;1.50;;;21.60;94.30;;;;;;6103597;29;20059;-77
2023/05/09 16:23:17;;;;;;;3.35;1.52;;;21.50;94.40;;;;;;6102878;29;20052;-79
2023/05/09 16:26:19;;;;;;;3.28;1.58;;;21.50;95.00;;;;;;6104216;29;20059;-76
2023/05/09 16:29:22;;;;;;;3.65;1.30;;;21.40;95.10;;;;;;6104063;29;20410;-79
2023/05/09 16:32:24;;;;;;;2.92;1.20;;;21.30;95.20;;;;;;6102266;29;20052;-78
2023/05/09 16:35:26;;;;;;;2.53;1.27;;;21.30;95.00;;;;;;6102990;29;20051;-78
2023/05/09 16:38:29;;;;;;;3.03;1.40;;;21.00;95.00;;;;;;6102160;29;20379;-79
2023/05/09 16:41:30;;;;;;;3.50;1.60;;;20.70;97.20;;;;;;6101504;29;20051;-79
2023/05/09 16:44:34;;;;;;;3.83;1.90;;;20.80;97.70;;;;;;6103035;29;20066;-79
2023/05/09 16:47:35;;;;;;;4.22;1.65;;;20.60;99.30;;;;;;6103647;29;20063;-75
2023/05/09 16:50:41;;;;;;;5.40;1.67;;;20.60;99.90;;;;;;6104715;29;20055;-80
2023/05/09 16:53:43;;;;;;;5.53;1.85;;;20.60;99.90;;;;;;6103045;29;20491;-78
2023/05/09 16:56:45;;;;;;;4.95;1.73;;;20.50;99.90;;;;;;6102956;29;20044;-79
2023/05/09 16:59:48;;;;;;;3.63;1.58;;;20.40;99.90;;;;;;6103228;29;20055;-79
2023/05/09 17:02:50;;;;;;;4.50;1.63;;;20.10;99.90;;;;;;6103140;29;20063;-80
2023/05/09 17:05:52;;;;;;;7.28;2.90;;;20.00;99.90;;;;;;6102879;29;20056;-81
2023/05/09 17:08:54;;;;;;;7.18;2.30;;;19.80;99.90;;;;;;6100695;29;20458;-79
2023/05/09 17:11:56;;;;;;;7.07;2.53;;;19.60;99.90;;;;;;6103014;29;20123;-80
2023/05/09 17:14:59;;;;;;;4.78;2.28;;;19.70;99.90;;;;;;6102404;29;20405;-77
2023/05/09 17:18:01;;;;;;;4.88;1.90;;;19.60;99.90;;;;;;6102242;29;20052;-79
2023/05/09 17:21:04;;;;;;;6.60;2.15;;;19.60;99.90;;;;;;6102246;29;20056;-77
2023/05/09 17:24:06;;;;;;;8.98;2.53;;;19.50;99.90;;;;;;6102168;29;20056;-80
2023/05/09 17:27:09;;;;;;;5.27;2.40;;;19.60;99.90;;;;;;6102475;29;20429;-79
2023/05/09 17:30:13;;;;;;;6.70;2.30;;;19.60;99.90;;;;;;6099549;29;20052;-79
2023/05/09 17:33:15;;;;;;;4.68;2.15;;;19.60;99.90;;;;;;6091089;29;20060;-80
2023/05/09 17:36:17;;;;;;;5.20;2.50;;;19.60;99.90;;;;;;6093060;29;20051;-76
2023/05/09 17:39:19;;;;;;;6.43;2.90;;;19.50;99.90;;;;;;6107220;29;20146;-78
2023/05/09 17:42:21;;;;;;;5.80;2.65;;;19.40;99.90;;;;;;6113743;29;20056;-77
2023/05/09 17:45:24;;;;;;;5.20;2.40;;;19.10;99.90;;;;;;6098875;29;20059;-78
2023/05/09 17:48:26;;;;;;;9.70;3.95;;;19.10;99.90;;;;;;6097688;29;20062;-79
2023/05/09 17:51:28;;;;;;;8.40;4.20;;;18.80;99.90;;;;;;6095437;29;20139;-80
2023/05/09 17:54:30;;;;;;;8.00;3.03;;;18.80;99.90;;;;;;6101136;29;20055;-79
2023/05/09 17:57:33;;;;;;;6.50;3.25;;;18.60;99.90;;;;;;6113521;29;20048;-79
2023/05/09 18:00:36;;;;;;;7.07;2.78;;;18.50;99.90;;;;;;6099149;29;20059;-77
2023/05/09 18:03:38;;;;;;;5.55;2.60;;;18.50;99.90;;;;;;6096316;29;20076;-80
2023/05/09 18:06:40;;;;;;;7.45;2.40;;;18.50;99.90;;;;;;6096923;29;20409;-79
2023/05/09 18:09:42;;;;;;;4.60;1.77;;;18.50;99.90;;;;;;6102071;29;20048;-77
2023/05/09 18:12:44;;;;;;;5.80;2.20;;;18.50;99.90;;;;;;6098249;29;20514;-79
2023/05/09 18:15:48;;;;;;;8.73;5.53;;;18.40;99.90;;;;;;6100030;29;20063;-79
2023/05/09 18:18:49;;;;;;;6.20;3.78;;;18.40;99.90;;;;;;6100035;29;20411;-80
2023/05/09 18:21:51;;;;;;;6.82;2.08;;;18.40;99.90;;;;;;6099934;29;20044;-78
2023/05/09 18:24:53;;;;;;;5.68;2.30;;;18.50;99.90;;;;;;6096812;29;20048;-78
2023/05/09 18:27:55;;;;;;;4.40;1.92;;;18.40;99.90;;;;;;6100454;29;20056;-78
2023/05/09 18:31:00;;;;;;;4.22;2.15;;;18.40;99.90;;;;;;6090433;29;20527;-79
2023/05/09 18:34:02;;;;;;;4.85;2.30;;;18.50;99.90;;;;;;6094016;29;20062;-77
2023/05/09 18:37:03;;;;;;;3.60;1.98;;;18.50;99.90;;;;;;6103038;29;20071;-79
2023/05/09 18:40:09;;;;;;;6.35;2.40;;;18.50;99.90;;;;;;6097444;29;20055;-78
2023/05/09 18:43:11;;;;;;;5.10;2.20;;;18.50;99.90;;;;;;6095369;29;20078;-80
2023/05/09 18:46:16;;;;;;;5.25;2.25;;;18.50;99.90;;;;;;6097739;29;20055;-79
2023/05/09 18:49:17;;;;;;;6.10;2.10;;;18.50;99.90;;;;;;6096319;29;20056;-75
2023/05/09 18:52:21;;;;;;;3.92;2.30;;;18.50;99.90;;;;;;6097611;29;20196;-77
2023/05/09 18:55:23;;;;;;;5.90;2.50;;;18.50;99.90;;;;;;6099654;29;20063;-79
2023/05/09 18:58:26;;;;;;;6.38;2.20;;;18.50;99.90;;;;;;6098466;29;20083;-78
2023/05/09 19:01:29;;;;;;;4.13;2.50;;;18.40;99.90;;;;;;6097954;29;20135;-76
2023/05/09 19:04:31;;;;;;;3.30;1.98;;;18.40;99.90;;;;;;6097896;29;20056;-78
2023/05/09 19:07:33;;;;;;;4.10;2.08;;;18.40;99.90;;;;;;6094414;29;20060;-79
2023/05/09 19:10:36;;;;;;;5.80;2.28;;;18.30;99.90;;;;;;6097144;29;20059;-79
2023/05/09 19:13:39;;;;;;;4.18;1.80;;;18.20;99.90;;;;;;6102361;29;20052;-78
2023/05/09 19:16:42;;;;;;;4.88;1.90;;;18.00;99.90;;;;;;6101207;29;20184;-80
2023/05/09 19:19:44;;;;;;;3.88;2.10;;;17.90;99.90;;;;;;6101701;29;20056;-80
2023/05/09 19:22:50;;;;;;;4.43;2.30;;;18.00;99.90;;;;;;6100423;29;20044;-80
2023/05/09 19:25:52;;;;;;;5.38;1.98;;;17.90;99.90;;;;;;6102633;29;20056;-78
2023/05/09 19:28:54;;;;;;;3.43;1.93;;;17.80;99.90;;;;;;6101889;29;20129;-76
2023/05/09 19:31:57;;;;;;;4.28;2.00;;;17.70;99.90;;;;;;6100788;29;20506;-79
2023/05/09 19:34:59;;;;;;;5.63;2.78;;;17.80;99.90;;;;;;6101298;29;20059;-77
2023/05/09 19:38:01;;;;;;;5.43;2.25;;;17.80;99.90;;;;;;6101994;29;20048;-78
2023/05/09 19:41:03;;;;;;;3.80;1.75;;;17.80;99.90;;;;;;6101961;29;20055;-79
2023/05/09 19:44:06;;;;;;;5.93;2.20;;;17.70;99.90;;;;;;6100968;29;20056;-77
2023/05/09 19:47:10;;;;;;;3.78;1.85;;;17.70;99.90;;;;;;6101628;29;20450;-77
2023/05/09 19:50:12;;;;;;;6.45;3.40;;;17.60;99.90;;;;;;6099888;29;20052;-79
2023/05/09 19:53:14;;;;;;;4.53;2.38;;;17.60;99.90;;;;;;6102055;29;20055;-78
2023/05/09 19:56:16;;;;;;;4.13;2.35;;;17.50;99.90;;;;;;6101273;29;20071;-78
2023/05/09 19:59:18;;;;;;;3.15;1.77;;;17.50;99.90;;;;;;6088735;29;20052;-77
2023/05/09 20:02:21;;;;;;;4.70;2.25;;;17.50;99.90;;;;;;6100282;29;20052;-79
2023/05/09 20:05:23;;;;;;;4.20;2.00;;;17.40;99.90;;;;;;6103250;29;20483;-79
2023/05/09 20:08:25;;;;;;;4.47;1.95;;;17.40;99.90;;;;;;6103037;29;20700;-77
2023/05/09 20:11:27;;;;;;;5.00;1.95;;;17.40;99.90;;;;;;6102661;29;20052;-77
2023/05/09 20:14:30;;;;;;;4.53;1.80;;;17.30;99.90;;;;;;6104417;29;20056;-75
2023/05/09 20:17:33;;;;;;;5.75;2.25;;;17.30;99.90;;;;;;6103137;29;20056;-75
2023/05/09 20:20:34;;;;;;;3.28;1.67;;;17.30;99.90;;;;;;6102602;29;20058;-78
2023/05/09 20:23:36;;;;;;;5.25;2.05;;;17.30;99.90;;;;;;6103132;29;20398;-77
2023/05/09 20:26:39;;;;;;;4.32;2.20;;;17.30;99.90;;;;;;6104093;29;20063;-76
2023/05/09 20:29:40;;;;;;;8.85;2.30;;;17.30;99.90;;;;;;6102284;29;20063;-75
2023/05/09 20:32:44;;;;;;;3.38;1.85;;;17.30;99.90;;;;;;6102497;29;20056;-76
2023/05/09 20:35:47;;;;;;;5.28;2.05;;;17.30;99.90;;;;;;6102674;29;20059;-77
2023/05/09 20:38:49;;;;;;;;;;;17.30;99.90;;;;;;6103802;29;20055;-77
2023/05/09 20:41:52;;;;;;;3.58;1.95;;;17.30;99.90;;;;;;6103285;29;20389;-77
2023/05/09 20:44:54;;;;;;;3.00;1.70;;;17.20;99.90;;;;;;6102263;29;20052;-77
2023/05/09 20:47:57;;;;;;;3.13;1.67;;;17.20;99.90;;;;;;6102615;29;20052;-77
2023/05/09 20:50:59;;;;;;;3.00;1.45;;;17.20;99.90;;;;;;6102376;29;20058;-76
2023/05/09 20:54:01;;;;;;;4.45;1.60;;;17.10;99.90;;;;;;6103313;29;20071;-77
2023/05/09 20:57:03;;;;;;;3.30;1.40;;;17.20;99.90;;;;;;6102715;29;20410;-77
2023/05/09 21:00:07;;;;;;;3.05;1.40;;;17.20;99.90;;;;;;6102911;29;20060;-76
2023/05/09 21:03:10;;;;;;;2.83;1.35;;;17.10;99.90;;;;;;6103019;29;20051;-77
2023/05/09 21:06:12;;;;;;;2.53;1.35;;;17.10;99.90;;;;;;6101201;29;20048;-77
2023/05/09 21:09:14;;;;;;;3.38;1.58;;;17.20;99.90;;;;;;6099161;29;20059;-76
2023/05/09 21:12:16;;;;;;;3.78;1.40;;;17.10;99.90;;;;;;6102731;29;20055;-77
2023/05/09 21:15:18;;;;;;;2.85;1.17;;;17.00;99.90;;;;;;6101744;29;20407;-77
2023/05/09 21:18:21;;;;;;;3.47;1.20;;;17.10;99.90;;;;;;6102770;29;20059;-78
2023/05/09 21:21:23;;;;;;;3.33;1.20;;;17.10;99.90;;;;;;6101482;29;20056;-78
2023/05/09 21:24:25;;;;;;;3.10;1.38;;;17.10;99.90;;;;;;6102016;29;20056;-79
2023/05/09 21:27:30;;;;;;;2.97;1.25;;;17.10;99.90;;;;;;6101862;29;20414;-77
2023/05/09 21:30:32;;;;;;;3.08;1.23;;;17.10;99.90;;;;;;6104177;29;20056;-76
2023/05/09 21:33:35;;;;;;;4.45;1.30;;;17.10;99.90;;;;;;6103573;29;20052;-78
2023/05/09 21:36:37;;;;;;;3.47;1.20;;;17.10;99.90;;;;;;6102708;29;20414;-77
2023/05/09 21:39:39;;;;;;;2.05;1.10;;;17.10;99.90;;;;;;6105139;29;20055;-76
2023/05/09 21:42:42;;;;;;;4.32;1.58;;;17.10;99.90;;;;;;6104477;29;20063;-78
2023/05/09 21:45:45;;;;;;;4.43;1.80;;;17.10;99.90;;;;;;6105254;29;20431;-77
2023/05/09 21:48:48;;;;;;;7.47;3.45;;;17.10;99.90;;;;;;6105076;29;20624;-76
2023/05/09 21:51:50;;;;;;;4.50;1.35;;;17.10;99.90;;;;;;6104989;29;20048;-77
2023/05/09 21:54:52;;;;;;;4.40;1.77;;;17.10;99.90;;;;;;6104235;29;20052;-78
2023/05/09 21:57:54;;;;;;;4.82;1.60;;;17.00;99.90;;;;;;6106705;29;20048;-78
